Roermond, Netherlands
Current Conditions -  °F | °C
As of 2:55 PM on Monday 24 Nov 2014 (Local Time) from EHBK Reporting Station
Clear Clear  
Wind Chill: 50°   Ceiling: Unl
Heat Index: 50°   Visibility: 6mi
Dew Point: 39°   Wind: 3mph
Humidity: 66%   Direction: 330°NNW
Pressure: 30.27"   Gusts: NA
Location:  51.19°N, 5.99°E
Report Text: EHBK 241355Z AUTO 33003KT 300V360 9999 NCD 10/04 Q1025 NOSIG
Loading
Personal Weather Stations






























Interactive Weather Map New forecast layout! Learn more

10-Day Weather Forecast

Advertisements
Track Severe Weather on mobile